Time;durP1;ratioP1;P1;durP2;ratioP2;P2;SDS_P1;SDS_P2;PMS_P1;PMS_P2;Temp;Humidity;BMP_temperature;BMP_pressure;BME280_temperature;BME280_humidity;BME280_pressure;Samples;Min_cycle;Max_cycle;Signal;HPM_P1;HPM_P2
2022/02/24 00:00:17;;;;;;;2.47;1.13;;;;;;;;;;4961529;29;20075;-85
2022/02/24 00:02:44;;;;;;;5.77;1.13;;;;;;;;;;4964832;28;20023;-86
2022/02/24 00:05:13;;;;;;;3.33;0.90;;;;;;;;;;4978030;28;20114;-85
2022/02/24 00:07:39;;;;;;;2.73;1.20;;;;;;;;;;4977235;28;20027;-85
2022/02/24 00:10:08;;;;;;;2.37;0.90;;;;;;;;;;4961353;28;20026;-85
2022/02/24 00:12:34;;;;;;;5.20;1.37;;;;;;;;;;4965313;28;20049;-85
2022/02/24 00:15:00;;;;;;;2.30;1.03;;;;;;;;;;4977860;28;20431;-86
2022/02/24 00:17:26;;;;;;;3.80;1.10;;;;;;;;;;4977883;28;20035;-86
2022/02/24 00:19:52;;;;;;;6.57;1.00;;;;;;;;;;4978796;28;20120;-86
2022/02/24 00:22:18;;;;;;;4.07;1.00;;;;;;;;;;4961356;28;20035;-86
2022/02/24 00:24:45;;;;;;;2.97;0.87;;;;;;;;;;4958697;29;20038;-86
2022/02/24 00:27:11;;;;;;;2.57;0.90;;;;;;;;;;4959534;28;20559;-85
2022/02/24 00:29:38;;;;;;;1.80;0.70;;;;;;;;;;4959002;29;20038;-87
2022/02/24 00:32:04;;;;;;;4.90;0.93;;;;;;;;;;4960091;28;20059;-86
2022/02/24 00:34:31;;;;;;;3.30;1.30;;;;;;;;;;4957902;29;20062;-86
2022/02/24 00:36:57;;;;;;;3.47;1.10;;;;;;;;;;4956969;28;20035;-86
2022/02/24 00:39:23;;;;;;;2.87;1.10;;;;;;;;;;4980961;23;20027;-83
2022/02/24 00:41:49;;;;;;;2.60;1.00;;;;;;;;;;4988575;28;20038;-86
2022/02/24 00:44:15;;;;;;;2.17;1.00;;;;;;;;;;4972836;28;20085;-86
2022/02/24 00:46:42;;;;;;;2.50;0.77;;;;;;;;;;4974279;28;20027;-86
2022/02/24 00:49:08;;;;;;;4.53;0.87;;;;;;;;;;4974648;28;20054;-86
2022/02/24 00:51:35;;;;;;;2.23;1.00;;;;;;;;;;4959872;28;20035;-86
2022/02/24 00:54:01;;;;;;;2.07;1.00;;;;;;;;;;4956352;29;20023;-86
2022/02/24 00:56:27;;;;;;;2.83;1.00;;;;;;;;;;4942306;29;20133;-86
2022/02/24 00:58:53;;;;;;;3.33;0.90;;;;;;;;;;4960824;28;20428;-87
2022/02/24 01:01:19;;;;;;;3.37;1.10;;;;;;;;;;4975930;28;20617;-86
2022/02/24 01:03:45;;;;;;;2.67;0.80;;;;;;;;;;4957918;28;20045;-86
2022/02/24 01:06:11;;;;;;;8.23;1.10;;;;;;;;;;4975217;28;20038;-86
2022/02/24 01:08:37;;;;;;;3.17;1.10;;;;;;;;;;4941794;29;20068;-86
2022/02/24 01:11:03;;;;;;;2.90;1.00;;;;;;;;;;4938146;29;20035;-86
2022/02/24 01:13:29;;;;;;;3.63;1.20;;;;;;;;;;4947836;28;20459;-86
2022/02/24 01:15:55;;;;;;;2.07;0.90;;;;;;;;;;4944831;29;20074;-84
2022/02/24 01:18:22;;;;;;;2.83;0.80;;;;;;;;;;4955570;29;20054;-85
2022/02/24 01:20:48;;;;;;;2.60;0.90;;;;;;;;;;4937868;29;20034;-84
2022/02/24 01:23:14;;;;;;;5.07;1.00;;;;;;;;;;4960526;29;20035;-85
2022/02/24 01:25:40;;;;;;;2.77;0.77;;;;;;;;;;4967334;28;20086;-84
2022/02/24 01:28:06;;;;;;;2.50;1.07;;;;;;;;;;4948768;29;20046;-84
2022/02/24 01:30:32;;;;;;;4.53;0.97;;;;;;;;;;4949807;29;20178;-84
2022/02/24 01:32:58;;;;;;;3.17;0.90;;;;;;;;;;4967329;28;20035;-84
2022/02/24 01:35:24;;;;;;;4.37;1.03;;;;;;;;;;4947326;29;20122;-84
2022/02/24 01:37:50;;;;;;;2.10;0.87;;;;;;;;;;4940980;29;20027;-85
2022/02/24 01:40:16;;;;;;;3.70;0.93;;;;;;;;;;4940722;29;20057;-85
2022/02/24 01:42:43;;;;;;;3.03;1.10;;;;;;;;;;4946455;29;20126;-85
2022/02/24 01:45:10;;;;;;;5.00;1.20;;;;;;;;;;4955908;29;20043;-85
2022/02/24 01:47:36;;;;;;;3.33;1.23;;;;;;;;;;4956815;29;20035;-85
2022/02/24 01:50:03;;;;;;;2.90;0.97;;;;;;;;;;4975137;28;20144;-85
2022/02/24 01:52:29;;;;;;;3.07;1.00;;;;;;;;;;4943347;29;20511;-85
2022/02/24 01:54:55;;;;;;;3.63;1.10;;;;;;;;;;4957725;29;20483;-84
2022/02/24 01:57:22;;;;;;;3.07;0.90;;;;;;;;;;4959777;29;20033;-85
2022/02/24 01:59:48;;;;;;;2.07;0.80;;;;;;;;;;4958631;28;20038;-85
2022/02/24 02:02:14;;;;;;;2.33;0.83;;;;;;;;;;4946434;28;20059;-84
2022/02/24 02:04:41;;;;;;;5.70;1.20;;;;;;;;;;4975485;28;20026;-84
2022/02/24 02:07:07;;;;;;;2.73;0.80;;;;;;;;;;4970532;28;20026;-85
2022/02/24 02:09:33;;;;;;;2.33;0.80;;;;;;;;;;4977569;28;20498;-85
2022/02/24 02:11:59;;;;;;;2.37;0.80;;;;;;;;;;4948986;28;20061;-84
2022/02/24 02:14:25;;;;;;;2.53;0.80;;;;;;;;;;4958844;28;20027;-85
2022/02/24 02:16:52;;;;;;;1.97;0.60;;;;;;;;;;4959891;28;20514;-85
2022/02/24 02:19:18;;;;;;;2.73;0.90;;;;;;;;;;4958305;28;20534;-85
2022/02/24 02:21:45;;;;;;;2.03;1.03;;;;;;;;;;4940410;28;20024;-85
2022/02/24 02:24:11;;;;;;;1.80;0.80;;;;;;;;;;4956444;29;20031;-85
2022/02/24 02:26:37;;;;;;;3.43;0.80;;;;;;;;;;4956578;29;20035;-84
2022/02/24 02:29:04;;;;;;;2.20;0.90;;;;;;;;;;4955970;28;20074;-84
2022/02/24 02:31:30;;;;;;;3.33;1.10;;;;;;;;;;4949400;29;20039;-85
2022/02/24 02:34:16;;;;;;;2.97;1.00;;;;;;;;;;4955849;29;20047;-85
2022/02/24 02:36:45;;;;;;;3.07;1.07;;;;;;;;;;4955874;28;20065;-84
2022/02/24 02:39:11;;;;;;;3.60;1.20;;;;;;;;;;4945002;29;20375;-85
2022/02/24 02:41:39;;;;;;;2.43;0.93;;;;;;;;;;4953500;29;20039;-85
2022/02/24 02:44:06;;;;;;;2.03;0.73;;;;;;;;;;4953596;29;20035;-85
2022/02/24 02:46:32;;;;;;;3.30;1.10;;;;;;;;;;4953680;29;20502;-84
2022/02/24 02:48:58;;;;;;;2.03;0.80;;;;;;;;;;4954896;28;20062;-85
2022/02/24 02:51:24;;;;;;;2.13;0.70;;;;;;;;;;4960177;28;20036;-84
2022/02/24 02:53:50;;;;;;;2.07;0.77;;;;;;;;;;4961054;29;20117;-85
2022/02/24 02:56:16;;;;;;;2.43;0.80;;;;;;;;;;4960137;28;20027;-85
2022/02/24 02:58:42;;;;;;;2.80;1.00;;;;;;;;;;4958684;29;20027;-85
2022/02/24 03:01:08;;;;;;;1.77;0.70;;;;;;;;;;4957799;28;20031;-84
2022/02/24 03:03:34;;;;;;;3.20;0.97;;;;;;;;;;4957945;28;20023;-85
2022/02/24 03:06:01;;;;;;;2.07;0.87;;;;;;;;;;4940138;29;20101;-85
2022/02/24 03:08:27;;;;;;;2.67;0.90;;;;;;;;;;4939352;28;20031;-84
2022/02/24 03:10:53;;;;;;;2.87;0.90;;;;;;;;;;4959090;28;20457;-85
2022/02/24 03:13:20;;;;;;;6.53;1.07;;;;;;;;;;4976087;28;20034;-85
2022/02/24 03:15:46;;;;;;;2.83;0.90;;;;;;;;;;4958734;28;20487;-85
2022/02/24 03:18:13;;;;;;;5.00;1.00;;;;;;;;;;4963232;28;20052;-85
2022/02/24 03:20:39;;;;;;;2.40;0.80;;;;;;;;;;4940040;29;20085;-85
2022/02/24 03:23:06;;;;;;;6.90;0.90;;;;;;;;;;4940040;29;20117;-85
2022/02/24 03:25:32;;;;;;;2.17;0.80;;;;;;;;;;4956970;29;20027;-85
2022/02/24 03:27:58;;;;;;;2.27;0.90;;;;;;;;;;4939955;29;20023;-84
2022/02/24 03:30:25;;;;;;;4.30;1.33;;;;;;;;;;4957038;28;20050;-86
2022/02/24 03:32:51;;;;;;;2.50;1.07;;;;;;;;;;4956724;29;20110;-84
2022/02/24 03:35:18;;;;;;;2.83;1.00;;;;;;;;;;4939055;29;20063;-84
2022/02/24 03:37:44;;;;;;;2.07;0.80;;;;;;;;;;4939702;29;20042;-85
2022/02/24 03:40:10;;;;;;;4.47;1.03;;;;;;;;;;4939453;29;20535;-84
2022/02/24 03:42:36;;;;;;;3.53;0.90;;;;;;;;;;4939571;29;20035;-84
2022/02/24 03:45:03;;;;;;;5.47;1.23;;;;;;;;;;4939258;28;20134;-84
2022/02/24 03:47:29;;;;;;;4.93;1.17;;;;;;;;;;4939324;29;20038;-84
2022/02/24 03:49:55;;;;;;;2.50;1.20;;;;;;;;;;4956472;28;20115;-84
2022/02/24 03:52:21;;;;;;;6.03;1.10;;;;;;;;;;4939711;29;20444;-84
2022/02/24 03:54:47;;;;;;;2.60;0.93;;;;;;;;;;4939675;28;20166;-84
2022/02/24 03:57:17;;;;;;;2.30;0.77;;;;;;;;;;4939115;29;20031;-84
2022/02/24 03:59:44;;;;;;;2.83;1.10;;;;;;;;;;4939545;29;20617;-84
2022/02/24 04:02:10;;;;;;;2.93;1.10;;;;;;;;;;4938667;29;20031;-84
2022/02/24 04:04:39;;;;;;;4.30;1.33;;;;;;;;;;4956266;28;20043;-84
2022/02/24 04:07:05;;;;;;;3.43;1.33;;;;;;;;;;4939026;29;20031;-84
2022/02/24 04:09:31;;;;;;;3.07;1.00;;;;;;;;;;4939083;28;20035;-84
2022/02/24 04:11:57;;;;;;;4.47;1.20;;;;;;;;;;4948884;28;20027;-84
2022/02/24 04:14:23;;;;;;;3.27;1.10;;;;;;;;;;4973206;28;20026;-84
2022/02/24 04:16:49;;;;;;;3.30;1.20;;;;;;;;;;4975614;28;20086;-84
2022/02/24 04:19:15;;;;;;;3.30;1.10;;;;;;;;;;4957893;28;20153;-84
2022/02/24 04:21:41;;;;;;;4.73;1.13;;;;;;;;;;4947100;29;20115;-84
2022/02/24 04:24:08;;;;;;;2.23;1.20;;;;;;;;;;4953879;29;20067;-84
2022/02/24 04:26:34;;;;;;;3.97;1.47;;;;;;;;;;4954741;29;20031;-84
2022/02/24 04:29:00;;;;;;;3.53;1.00;;;;;;;;;;4956028;28;20403;-84
2022/02/24 04:31:26;;;;;;;6.77;1.07;;;;;;;;;;4938502;29;20031;-84
2022/02/24 04:33:52;;;;;;;3.43;1.23;;;;;;;;;;4956940;29;20039;-84
2022/02/24 04:36:18;;;;;;;3.57;1.10;;;;;;;;;;4939708;29;20548;-84
2022/02/24 04:38:44;;;;;;;3.37;1.30;;;;;;;;;;4943657;28;20054;-84
2022/02/24 04:41:10;;;;;;;2.67;1.20;;;;;;;;;;4956905;28;20372;-85
2022/02/24 04:43:36;;;;;;;5.07;1.20;;;;;;;;;;4956865;28;20439;-84
2022/02/24 04:46:02;;;;;;;2.63;1.40;;;;;;;;;;4957439;28;20444;-85
2022/02/24 04:48:28;;;;;;;4.27;1.30;;;;;;;;;;4955400;28;20055;-84
2022/02/24 04:50:55;;;;;;;3.50;1.07;;;;;;;;;;4955430;28;20695;-84
2022/02/24 04:53:21;;;;;;;5.00;1.30;;;;;;;;;;4954634;29;20499;-84
2022/02/24 04:55:47;;;;;;;3.07;1.10;;;;;;;;;;4955323;28;20038;-84
2022/02/24 04:58:13;;;;;;;2.90;1.10;;;;;;;;;;4937935;29;20035;-84
2022/02/24 05:00:40;;;;;;;5.40;1.40;;;;;;;;;;4953500;28;20110;-84
2022/02/24 05:03:06;;;;;;;2.87;1.00;;;;;;;;;;4953337;28;20039;-85
2022/02/24 05:05:32;;;;;;;2.70;1.10;;;;;;;;;;4952932;29;20031;-84
2022/02/24 05:07:59;;;;;;;2.50;0.83;;;;;;;;;;4952414;28;20039;-84
2022/02/24 05:10:25;;;;;;;2.53;0.93;;;;;;;;;;4938387;28;20031;-84
2022/02/24 05:12:52;;;;;;;2.37;0.90;;;;;;;;;;4966022;28;20029;-84
2022/02/24 05:15:18;;;;;;;8.93;1.63;;;;;;;;;;4969322;28;20027;-85
2022/02/24 05:17:44;;;;;;;3.43;1.20;;;;;;;;;;4972256;28;20031;-83
2022/02/24 05:20:11;;;;;;;3.37;1.00;;;;;;;;;;4971782;28;20073;-84
2022/02/24 05:22:39;;;;;;;2.33;1.10;;;;;;;;;;4953028;29;20390;-85
2022/02/24 05:25:06;;;;;;;3.83;1.00;;;;;;;;;;4932744;28;20562;-85
2022/02/24 05:27:32;;;;;;;3.37;0.80;;;;;;;;;;4951732;29;20031;-84
2022/02/24 05:29:58;;;;;;;1.97;0.97;;;;;;;;;;4951623;28;20027;-85
2022/02/24 05:32:24;;;;;;;3.20;1.20;;;;;;;;;;4951697;28;20039;-84
2022/02/24 05:34:50;;;;;;;4.47;1.30;;;;;;;;;;4952320;29;20073;-84
2022/02/24 05:37:17;;;;;;;1.80;0.80;;;;;;;;;;4952988;29;20456;-84
2022/02/24 05:39:43;;;;;;;2.53;1.00;;;;;;;;;;4951402;28;20031;-85
2022/02/24 05:42:09;;;;;;;3.67;1.23;;;;;;;;;;4965037;28;20427;-85
2022/02/24 05:44:35;;;;;;;2.73;1.10;;;;;;;;;;4987835;28;20031;-88
2022/02/24 05:47:01;;;;;;;6.07;1.60;;;;;;;;;;4970864;28;20042;-88
2022/02/24 05:49:28;;;;;;;3.33;1.33;;;;;;;;;;4968004;28;20039;-87
2022/02/24 05:51:54;;;;;;;4.60;1.37;;;;;;;;;;4953413;28;20038;-87
2022/02/24 05:54:21;;;;;;;2.57;1.17;;;;;;;;;;4949853;28;20062;-88
2022/02/24 05:56:47;;;;;;;3.30;1.03;;;;;;;;;;4986041;28;20104;-88
2022/02/24 05:59:13;;;;;;;3.17;1.10;;;;;;;;;;4986293;28;20082;-88
2022/02/24 06:01:39;;;;;;;3.77;1.27;;;;;;;;;;4986459;28;20514;-87
2022/02/24 06:04:05;;;;;;;4.87;1.60;;;;;;;;;;4970544;28;20050;-87
2022/02/24 06:06:31;;;;;;;6.13;1.70;;;;;;;;;;4956740;28;20475;-88
2022/02/24 06:08:57;;;;;;;6.83;1.70;;;;;;;;;;4985866;28;20122;-88
2022/02/24 06:11:23;;;;;;;3.60;1.30;;;;;;;;;;4962012;28;20504;-87
2022/02/24 06:13:49;;;;;;;4.43;1.30;;;;;;;;;;4953362;28;20126;-87
2022/02/24 06:16:15;;;;;;;3.73;1.40;;;;;;;;;;4971643;28;20110;-88
2022/02/24 06:18:41;;;;;;;3.20;1.07;;;;;;;;;;4951610;28;20039;-88
2022/02/24 06:21:07;;;;;;;5.77;1.60;;;;;;;;;;5001826;28;20569;-89
2022/02/24 06:23:33;;;;;;;3.50;1.30;;;;;;;;;;4981112;28;20023;-85
2022/02/24 06:25:59;;;;;;;3.20;1.20;;;;;;;;;;4976406;28;20066;-84
2022/02/24 06:28:25;;;;;;;2.60;1.10;;;;;;;;;;5010097;28;20027;-85
2022/02/24 06:30:51;;;;;;;4.00;1.53;;;;;;;;;;4977037;28;20130;-85
2022/02/24 06:33:19;;;;;;;5.63;1.97;;;;;;;;;;4983493;28;20445;-85
2022/02/24 06:35:45;;;;;;;5.23;1.60;;;;;;;;;;4991761;28;20031;-84
2022/02/24 06:38:11;;;;;;;2.87;1.40;;;;;;;;;;5000241;28;20022;-85
2022/02/24 06:40:38;;;;;;;4.63;1.97;;;;;;;;;;4994546;23;20137;-86
2022/02/24 06:43:03;;;;;;;5.13;1.53;;;;;;;;;;4964430;28;20030;-87
2022/02/24 06:45:32;;;;;;;4.70;1.70;;;;;;;;;;4975469;28;20426;-87
2022/02/24 06:47:58;;;;;;;5.50;1.83;;;;;;;;;;4973888;28;20022;-86
2022/02/24 06:50:24;;;;;;;4.07;1.60;;;;;;;;;;4958737;28;20038;-86
2022/02/24 06:52:50;;;;;;;3.97;1.70;;;;;;;;;;4976089;28;20031;-85
2022/02/24 06:55:16;;;;;;;4.90;1.80;;;;;;;;;;4975388;28;20106;-85
2022/02/24 06:57:44;;;;;;;2.77;1.37;;;;;;;;;;4976074;28;20026;-84
2022/02/24 07:00:10;;;;;;;4.80;2.23;;;;;;;;;;4959825;28;20117;-85
2022/02/24 07:02:36;;;;;;;4.20;1.87;;;;;;;;;;4966705;28;20028;-86
2022/02/24 07:05:04;;;;;;;5.03;1.90;;;;;;;;;;4974289;28;20039;-85
2022/02/24 07:07:31;;;;;;;4.87;1.73;;;;;;;;;;4975946;28;20030;-86
2022/02/24 07:09:57;;;;;;;4.67;1.83;;;;;;;;;;4965350;28;20178;-85
2022/02/24 07:12:23;;;;;;;4.07;1.50;;;;;;;;;;4957694;28;20439;-86
2022/02/24 07:14:52;;;;;;;4.47;1.70;;;;;;;;;;4975423;28;20103;-85
2022/02/24 07:17:18;;;;;;;4.73;1.70;;;;;;;;;;4959708;28;20157;-84
2022/02/24 07:19:44;;;;;;;4.67;1.87;;;;;;;;;;4965314;28;20499;-85
2022/02/24 07:22:10;;;;;;;4.23;1.87;;;;;;;;;;4939161;29;20035;-85
2022/02/24 07:24:36;;;;;;;5.07;1.90;;;;;;;;;;4938967;29;20019;-85
2022/02/24 07:27:02;;;;;;;4.47;1.97;;;;;;;;;;4939344;29;20087;-85
2022/02/24 07:29:28;;;;;;;6.57;2.20;;;;;;;;;;4956564;28;20377;-85
2022/02/24 07:31:54;;;;;;;5.87;2.57;;;;;;;;;;4937046;28;20104;-84
2022/02/24 07:34:20;;;;;;;5.00;2.60;;;;;;;;;;4937835;29;20067;-85
2022/02/24 07:36:46;;;;;;;4.30;2.13;;;;;;;;;;4955039;28;20035;-85
2022/02/24 07:39:15;;;;;;;4.93;2.23;;;;;;;;;;4938981;29;20432;-85
2022/02/24 07:41:41;;;;;;;5.50;2.10;;;;;;;;;;4956078;28;20035;-86
2022/02/24 07:44:08;;;;;;;5.80;2.00;;;;;;;;;;4956284;29;20039;-84
2022/02/24 07:46:34;;;;;;;7.00;2.20;;;;;;;;;;4942278;29;20094;-84
2022/02/24 07:49:00;;;;;;;6.30;2.17;;;;;;;;;;4943730;28;20502;-84
2022/02/24 07:51:26;;;;;;;6.23;2.40;;;;;;;;;;4938773;29;20073;-85
2022/02/24 07:53:52;;;;;;;9.27;2.40;;;;;;;;;;4955440;29;20086;-85
2022/02/24 07:56:18;;;;;;;6.03;2.20;;;;;;;;;;4938216;29;20027;-84
2022/02/24 07:58:50;;;;;;;7.00;2.50;;;;;;;;;;4955626;28;20171;-85
2022/02/24 08:01:17;;;;;;;6.57;2.30;;;;;;;;;;4938504;29;20627;-84
2022/02/24 08:03:43;;;;;;;6.23;2.37;;;;;;;;;;4937933;29;20118;-84
2022/02/24 08:06:09;;;;;;;7.40;2.50;;;;;;;;;;4950964;28;20030;-84
2022/02/24 08:08:35;;;;;;;6.70;2.50;;;;;;;;;;4958038;28;20021;-84
2022/02/24 08:11:01;;;;;;;6.90;2.70;;;;;;;;;;4958319;28;20113;-84
2022/02/24 08:13:28;;;;;;;9.87;2.43;;;;;;;;;;4957676;28;20042;-84
2022/02/24 08:15:54;;;;;;;9.77;2.87;;;;;;;;;;4953506;29;20042;-84
2022/02/24 08:18:20;;;;;;;4.90;2.53;;;;;;;;;;4938729;29;20690;-84
2022/02/24 08:20:46;;;;;;;5.30;2.07;;;;;;;;;;4956158;28;20027;-84
2022/02/24 08:23:12;;;;;;;5.70;2.17;;;;;;;;;;4938998;29;20466;-85
2022/02/24 08:25:38;;;;;;;7.60;2.43;;;;;;;;;;4945824;29;20034;-85
2022/02/24 08:28:04;;;;;;;6.90;2.60;;;;;;;;;;4955659;29;20035;-85
2022/02/24 08:30:30;;;;;;;9.33;2.90;;;;;;;;;;4937970;29;20085;-85
2022/02/24 08:32:56;;;;;;;4.60;2.30;;;;;;;;;;4952818;28;20039;-86
2022/02/24 08:35:36;;;;;;;6.03;2.57;;;;;;;;;;4955633;29;20155;-86
2022/02/24 08:38:10;;;;;;;6.90;2.50;;;;;;;;;;4955511;29;20035;-86
2022/02/24 08:40:36;;;;;;;5.90;2.00;;;;;;;;;;4947814;28;20140;-86
2022/02/24 08:43:02;;;;;;;6.17;2.37;;;;;;;;;;4959195;28;20031;-86
2022/02/24 08:45:31;;;;;;;4.90;2.07;;;;;;;;;;4956589;28;20125;-85
2022/02/24 08:47:59;;;;;;;3.97;1.90;;;;;;;;;;4955905;28;20046;-86
2022/02/24 08:50:31;;;;;;;4.73;2.07;;;;;;;;;;4956512;28;20026;-85
2022/02/24 08:53:00;;;;;;;4.55;2.13;;;;;;;;;;4957169;28;20035;-85
2022/02/24 08:55:39;;;;;;;4.30;1.70;;;;;;;;;;4956632;28;20483;-85
2022/02/24 08:58:06;;;;;;;5.33;1.70;;;;;;;;;;4943635;29;20037;-85
2022/02/24 09:00:36;;;;;;;6.70;1.97;;;;;;;;;;4954508;28;20035;-85
2022/02/24 09:03:02;;;;;;;4.93;1.83;;;;;;;;;;4937511;29;20046;-86
2022/02/24 09:05:28;;;;;;;5.17;1.50;;;;;;;;;;4936917;28;20031;-85
2022/02/24 09:08:23;;;;;;;5.50;1.60;;;;;;;;;;4954438;29;20035;-86
2022/02/24 09:10:49;;;;;;;2.60;1.27;;;;;;;;;;4941614;29;20050;-85
2022/02/24 09:13:15;;;;;;;4.93;1.47;;;;;;;;;;4949809;28;20110;-85
2022/02/24 09:15:41;;;;;;;7.40;1.73;;;;;;;;;;4945576;29;20024;-86
2022/02/24 09:18:09;;;;;;;4.53;1.73;;;;;;;;;;4949448;29;20066;-85
2022/02/24 09:20:35;;;;;;;3.73;1.40;;;;;;;;;;4949182;29;20027;-85
2022/02/24 09:23:01;;;;;;;3.73;1.20;;;;;;;;;;4947999;29;20023;-86
2022/02/24 09:25:27;;;;;;;4.17;1.20;;;;;;;;;;4939590;29;20134;-86
2022/02/24 09:27:53;;;;;;;4.17;1.13;;;;;;;;;;4936934;29;20490;-86
2022/02/24 09:30:20;;;;;;;3.60;1.30;;;;;;;;;;4936670;29;20114;-86
2022/02/24 09:32:46;;;;;;;2.67;1.23;;;;;;;;;;4953881;28;20086;-86
2022/02/24 09:35:14;;;;;;;3.37;1.33;;;;;;;;;;4936422;29;20589;-86
2022/02/24 09:37:41;;;;;;;2.03;0.90;;;;;;;;;;4936291;29;20023;-86
2022/02/24 09:40:10;;;;;;;3.43;1.43;;;;;;;;;;4935787;29;20043;-86
2022/02/24 09:42:36;;;;;;;1.75;0.82;;;;;;;;;;4936456;29;20023;-86
2022/02/24 09:45:03;;;;;;;2.65;1.20;;;;;;;;;;4936355;29;20643;-86
2022/02/24 09:47:32;;;;;;;2.85;1.17;;;;;;;;;;4953422;28;20036;-86
2022/02/24 09:50:02;;;;;;;4.20;1.38;;;;;;;;;;4969270;28;20038;-86
2022/02/24 09:52:28;;;;;;;3.70;0.90;;;;;;;;;;4955768;28;20031;-86
2022/02/24 09:54:56;;;;;;;1.60;0.65;;;;;;;;;;4972612;28;20035;-87
2022/02/24 09:57:23;;;;;;;2.58;1.05;;;;;;;;;;4950887;28;20047;-86
2022/02/24 09:59:49;;;;;;;2.45;1.00;;;;;;;;;;4934766;28;20023;-87
2022/02/24 10:02:18;;;;;;;1.98;0.70;;;;;;;;;;4935254;29;20028;-86
2022/02/24 10:05:05;;;;;;;1.60;0.53;;;;;;;;;;4938314;28;20086;-87
2022/02/24 10:07:35;;;;;;;2.05;0.40;;;;;;;;;;4935252;29;20040;-87
2022/02/24 10:10:20;;;;;;;1.80;0.60;;;;;;;;;;4935572;29;20170;-86
2022/02/24 10:13:02;;;;;;;1.98;0.50;;;;;;;;;;4940030;28;20462;-86
2022/02/24 10:15:32;;;;;;;1.77;0.63;;;;;;;;;;4934958;29;20031;-87
2022/02/24 10:18:09;;;;;;;1.52;0.50;;;;;;;;;;4952742;29;20031;-87
2022/02/24 10:20:40;;;;;;;1.40;0.57;;;;;;;;;;4952622;28;20399;-87
2022/02/24 10:23:09;;;;;;;0.82;0.30;;;;;;;;;;4952328;28;20027;-86
2022/02/24 10:25:57;;;;;;;3.03;0.40;;;;;;;;;;4934852;29;20035;-86
2022/02/24 10:28:46;;;;;;;1.40;0.50;;;;;;;;;;4933409;29;20098;-87
2022/02/24 10:31:16;;;;;;;3.50;0.57;;;;;;;;;;4935140;28;20436;-86
2022/02/24 10:33:47;;;;;;;1.50;0.38;;;;;;;;;;4953950;28;20114;-86
2022/02/24 10:36:20;;;;;;;3.30;0.50;;;;;;;;;;4954378;28;20054;-87
2022/02/24 10:39:02;;;;;;;2.42;0.45;;;;;;;;;;4971567;28;20394;-87
2022/02/24 10:41:49;;;;;;;0.70;0.22;;;;;;;;;;4952885;28;20031;-87
2022/02/24 10:44:22;;;;;;;2.92;0.93;;;;;;;;;;4953941;28;20038;-86
2022/02/24 10:46:52;;;;;;;2.53;0.50;;;;;;;;;;4954206;28;20055;-87
2022/02/24 10:49:32;;;;;;;1.27;0.30;;;;;;;;;;4969132;28;20066;-87
2022/02/24 10:52:12;;;;;;;0.88;0.30;;;;;;;;;;4952057;29;20047;-86
2022/02/24 10:54:38;;;;;;;1.00;0.38;;;;;;;;;;4934645;29;20031;-87
2022/02/24 10:57:32;;;;;;;1.15;0.32;;;;;;;;;;4934730;28;20043;-87
2022/02/24 11:00:01;;;;;;;1.00;0.38;;;;;;;;;;4934843;29;20082;-87
2022/02/24 11:02:42;;;;;;;1.92;0.40;;;;;;;;;;4934438;29;20051;-87
2022/02/24 11:05:11;;;;;;;1.08;0.38;;;;;;;;;;4951689;29;20035;-87
2022/02/24 11:07:37;;;;;;;1.63;0.40;;;;;;;;;;4952049;28;20039;-87
2022/02/24 11:10:03;;;;;;;1.42;0.40;;;;;;;;;;4952460;28;20046;-87
2022/02/24 11:12:29;;;;;;;1.98;0.50;;;;;;;;;;4940499;28;20071;-87
2022/02/24 11:14:56;;;;;;;0.93;0.40;;;;;;;;;;4957179;28;20038;-87
2022/02/24 11:17:22;;;;;;;3.22;0.40;;;;;;;;;;4953188;28;20261;-87
2022/02/24 11:19:48;;;;;;;0.90;0.30;;;;;;;;;;4938009;28;20023;-87
2022/02/24 11:22:18;;;;;;;1.75;0.50;;;;;;;;;;4938298;29;20125;-86
2022/02/24 11:24:53;;;;;;;1.92;0.60;;;;;;;;;;4937294;28;20054;-86
2022/02/24 11:27:48;;;;;;;1.10;0.30;;;;;;;;;;4938357;29;20388;-86
2022/02/24 11:30:29;;;;;;;0.98;0.43;;;;;;;;;;4857364;29;20148;-86
2022/02/24 11:33:21;;;;;;;;;;;;;;;;;;;;;
2022/02/24 11:36:16;;;;;;;;;;;;;;;;;;;;;
2022/02/24 11:39:05;;;;;;;0.80;0.32;;;;;;;;;;4872958;29;20047;-86
2022/02/24 11:42:17;;;;;;;;;;;;;;;;;;;;;
2022/02/24 11:48:24;;;;;;;2.13;0.22;;;;;;;;;;4929889;28;20030;-86
2022/02/24 11:57:19;;;;;;;0.35;0.20;;;;;;;;;;4971368;28;20050;-86
2022/02/24 12:06:11;;;;;;;;;;;;;;;;;;;;;
2022/02/24 12:22:01;;;;;;;1.65;0.15;;;;;;;;;;4874009;29;20065;-87
2022/02/24 12:27:38;;;;;;;1.70;0.40;;;;;;;;;;4883305;29;20036;-87
2022/02/24 12:30:42;;;;;;;2.08;0.32;;;;;;;;;;4955212;23;20049;-87
2022/02/24 12:42:37;;;;;;;1.02;0.25;;;;;;;;;;4573242;26;20039;-86
2022/02/24 12:45:04;;;;;;;2.95;0.50;;;;;;;;;;4951694;29;20023;-82
2022/02/24 12:47:38;;;;;;;0.30;0.10;;;;;;;;;;4950143;29;20023;-85
2022/02/24 12:50:07;;;;;;;0.88;0.30;;;;;;;;;;4971549;28;20038;-85
2022/02/24 12:52:39;;;;;;;1.33;0.30;;;;;;;;;;4953878;29;20051;-85
2022/02/24 12:55:29;;;;;;;2.83;0.35;;;;;;;;;;4958903;29;20090;-85
2022/02/24 12:58:16;;;;;;;0.80;0.30;;;;;;;;;;4957929;28;20036;-85
2022/02/24 13:01:02;;;;;;;0.70;0.15;;;;;;;;;;4954181;29;20031;-85
2022/02/24 13:03:31;;;;;;;2.45;0.38;;;;;;;;;;4952187;29;20019;-86
2022/02/24 13:06:13;;;;;;;0.77;0.30;;;;;;;;;;4975306;28;20030;-86
2022/02/24 13:11:39;;;;;;;;;;;;;;;;;;;;;
2022/02/24 13:14:16;;;;;;;1.10;0.25;;;;;;;;;;4967298;29;20062;-85
2022/02/24 13:17:01;;;;;;;1.13;0.30;;;;;;;;;;4961065;29;20023;-85
2022/02/24 13:19:35;;;;;;;2.13;0.60;;;;;;;;;;4939288;29;20035;-85
2022/02/24 13:22:12;;;;;;;2.42;0.47;;;;;;;;;;4958764;29;20053;-86
2022/02/24 13:25:05;;;;;;;0.80;0.17;;;;;;;;;;4953888;29;20035;-86
2022/02/24 13:27:45;;;;;;;3.13;0.55;;;;;;;;;;4953873;29;20039;-85
2022/02/24 13:30:42;;;;;;;1.98;0.40;;;;;;;;;;4953098;29;20031;-86
2022/02/24 13:33:14;;;;;;;1.85;0.40;;;;;;;;;;4958448;28;20043;-86
2022/02/24 13:35:48;;;;;;;2.22;0.40;;;;;;;;;;4954120;29;20036;-85
2022/02/24 13:38:24;;;;;;;0.90;0.35;;;;;;;;;;4958517;29;20039;-85
2022/02/24 13:40:50;;;;;;;1.63;0.40;;;;;;;;;;4950600;29;20032;-86
2022/02/24 13:43:25;;;;;;;1.65;0.40;;;;;;;;;;4943410;29;20420;-85
2022/02/24 13:45:58;;;;;;;0.52;0.22;;;;;;;;;;4929999;29;20091;-85
2022/02/24 13:48:37;;;;;;;1.33;0.38;;;;;;;;;;4932633;28;20036;-86
2022/02/24 13:51:03;;;;;;;1.83;0.43;;;;;;;;;;4987617;28;20030;-86
2022/02/24 13:53:38;;;;;;;2.30;0.30;;;;;;;;;;4944953;29;20400;-85
2022/02/24 13:56:14;;;;;;;1.17;0.28;;;;;;;;;;4949756;29;20059;-86
2022/02/24 13:58:47;;;;;;;1.52;0.50;;;;;;;;;;4933281;29;20027;-85
2022/02/24 14:01:24;;;;;;;1.45;0.43;;;;;;;;;;4932130;29;20717;-86
2022/02/24 14:03:53;;;;;;;1.17;0.30;;;;;;;;;;4930893;29;20027;-86
2022/02/24 14:06:23;;;;;;;1.27;0.30;;;;;;;;;;4930647;29;20054;-86
2022/02/24 14:08:55;;;;;;;1.65;0.50;;;;;;;;;;4947147;29;20110;-85
2022/02/24 14:11:26;;;;;;;2.50;0.40;;;;;;;;;;4929854;29;20107;-85
2022/02/24 14:13:55;;;;;;;2.92;0.45;;;;;;;;;;4956521;29;20027;-85
2022/02/24 14:16:25;;;;;;;0.65;0.20;;;;;;;;;;4944978;29;20422;-85
2022/02/24 14:18:51;;;;;;;2.58;0.30;;;;;;;;;;4939306;29;20031;-86
2022/02/24 14:21:18;;;;;;;2.22;0.35;;;;;;;;;;4943309;29;20042;-86
2022/02/24 14:23:44;;;;;;;2.15;0.60;;;;;;;;;;4947467;29;20024;-85
2022/02/24 14:26:11;;;;;;;1.27;0.30;;;;;;;;;;4946960;29;20042;-85
2022/02/24 14:28:47;;;;;;;1.27;0.40;;;;;;;;;;4948109;29;20051;-86
2022/02/24 14:31:13;;;;;;;1.20;0.35;;;;;;;;;;4945484;29;20119;-86
2022/02/24 14:33:43;;;;;;;0.90;0.30;;;;;;;;;;4946720;29;20036;-85
2022/02/24 14:36:12;;;;;;;2.70;0.40;;;;;;;;;;4951864;29;20031;-86
2022/02/24 14:38:41;;;;;;;1.23;0.30;;;;;;;;;;4966850;29;20105;-86
2022/02/24 14:41:16;;;;;;;2.10;0.40;;;;;;;;;;4957263;29;20050;-86
2022/02/24 14:43:42;;;;;;;1.75;0.40;;;;;;;;;;4958830;29;20104;-86
2022/02/24 14:46:08;;;;;;;2.17;0.40;;;;;;;;;;4954943;29;20031;-86
2022/02/24 14:48:44;;;;;;;2.63;0.30;;;;;;;;;;4977971;28;20035;-84
2022/02/24 14:51:18;;;;;;;1.45;0.30;;;;;;;;;;4962882;29;20031;-85
2022/02/24 14:54:11;;;;;;;2.42;0.70;;;;;;;;;;4976230;28;20055;-86
2022/02/24 14:56:40;;;;;;;4.10;0.43;;;;;;;;;;4962480;29;20104;-86
2022/02/24 14:59:09;;;;;;;1.23;0.30;;;;;;;;;;4963896;29;20042;-86
2022/02/24 15:01:45;;;;;;;;;;;;;;;;;;;;;
2022/02/24 15:04:21;;;;;;;0.85;0.20;;;;;;;;;;4973888;29;20062;-86
2022/02/24 15:07:01;;;;;;;1.00;0.20;;;;;;;;;;4957472;29;20023;-85
2022/02/24 15:09:38;;;;;;;2.05;0.40;;;;;;;;;;4961411;29;20070;-85
2022/02/24 15:12:11;;;;;;;0.98;0.40;;;;;;;;;;4974319;29;20029;-85
2022/02/24 15:14:40;;;;;;;1.40;0.50;;;;;;;;;;4957530;29;20031;-86
2022/02/24 15:17:18;;;;;;;1.08;0.40;;;;;;;;;;4963372;29;20078;-84
2022/02/24 15:20:12;;;;;;;1.50;0.20;;;;;;;;;;4957120;29;20020;-86
2022/02/24 15:23:20;;;;;;;0.65;0.20;;;;;;;;;;4961399;29;20127;-86
2022/02/24 15:25:52;;;;;;;0.75;0.30;;;;;;;;;;4956529;29;20027;-86
2022/02/24 15:28:23;;;;;;;3.78;0.32;;;;;;;;;;4959695;28;20039;-86
2022/02/24 15:30:55;;;;;;;1.88;0.30;;;;;;;;;;4977833;28;20031;-86
2022/02/24 15:33:42;;;;;;;3.67;0.70;;;;;;;;;;4954050;28;20023;-86
2022/02/24 15:36:24;;;;;;;;;;;;;;;;;;;;;
2022/02/24 15:38:57;;;;;;;0.75;0.30;;;;;;;;;;4975082;29;20062;-86
2022/02/24 15:41:29;;;;;;;1.42;0.40;;;;;;;;;;5006422;23;20038;-86
2022/02/24 15:43:58;;;;;;;1.45;0.45;;;;;;;;;;4992201;28;20085;-86
2022/02/24 15:46:27;;;;;;;4.93;0.30;;;;;;;;;;4989834;28;20022;-86
2022/02/24 15:48:59;;;;;;;2.60;0.32;;;;;;;;;;4995334;28;20022;-87